Pagina principale
METAR-TAF:

METAR-TAF

Aeroporti :

Aeroporto militare Lanvéoc-Poulmic

Lanvéoc, Francia

latitudine: 48-17N, longitudine: 004-26W, altezza: 87 m

Osservazione

Il bollettino è stato emesso 14 minuti fa, alle 03:00 UTC
Vento 14 kt da sud-ovest
Temperature 11°C
Umidità 94%
Pressione 1024 hPa
Visibilità: 5000 m
Cielo coperto ad un'altezza di 300 ft
pioggia debole, pioviggine, foschia

METAR: LFRL 240300Z AUTO 22014KT 5000 -RADZ BR OVC003 11/10 Q1024

Ora: 04:14 (03:14 UTC)


TAF: mancante

Osservazioni e previsioni meteorologiche di più di 4000 aeroporti (messaggi METAR e TAF).

Le stazioni disponibili sono rappresentate dai dischi gialli e rossi sulla carta.

Puntare il mouse per vedere il nome della stazione.

Clicca sopra per visualizzare le osservazioni e previsioni meteorologiche.

Per cambiare la mappa : fare clic sui pulsanti verdi con una croce nera per ingrandire, il pulsante verde con un trattino per diminuire, o sulla freccia verde per le mappe adiacenti.


METAR-TAF: